Time;durP1;ratioP1;P1;durP2;ratioP2;P2;SDS_P1;SDS_P2;PMS_P1;PMS_P2;Temp;Humidity;BMP_temperature;BMP_pressure;BME280_temperature;BME280_humidity;BME280_pressure;Samples;Min_cycle;Max_cycle;Signal;HPM_P1;HPM_P2
2023/06/29 00:01:32;;;;;;;5.03;3.47;;;;;;;16.61;100.00;100571.88;5031307;28;20589;-69
2023/06/29 00:03:58;;;;;;;4.47;3.13;;;;;;;16.46;100.00;100572.88;5037100;28;20249;-69
2023/06/29 00:06:26;;;;;;;5.43;3.10;;;;;;;16.38;100.00;100573.81;5036741;28;20231;-69
2023/06/29 00:08:52;;;;;;;4.07;3.10;;;;;;;16.31;100.00;100575.66;5030851;28;20195;-69
2023/06/29 00:11:20;;;;;;;4.83;3.40;;;;;;;16.30;100.00;100573.88;5031217;28;20204;-69
2023/06/29 00:13:46;;;;;;;4.67;3.20;;;;;;;16.44;100.00;100572.00;5037797;28;20548;-69
2023/06/29 00:16:13;;;;;;;6.17;3.60;;;;;;;16.36;100.00;100570.25;5036104;28;20233;-70
2023/06/29 00:18:39;;;;;;;5.60;3.33;;;;;;;16.28;100.00;100570.31;5044812;28;20211;-70
2023/06/29 00:21:06;;;;;;;6.13;3.33;;;;;;;16.14;100.00;100569.53;5034612;28;20599;-69
2023/06/29 00:23:34;;;;;;;6.20;3.20;;;;;;;15.99;100.00;100567.84;5042099;28;20336;-70
2023/06/29 00:26:02;;;;;;;6.10;3.60;;;;;;;15.94;100.00;100570.53;5038928;28;20216;-70
2023/06/29 00:28:28;;;;;;;4.30;3.40;;;;;;;15.83;100.00;100567.03;5040119;28;20222;-70
2023/06/29 00:30:55;;;;;;;7.10;3.30;;;;;;;15.88;100.00;100565.22;5040265;28;20639;-70
2023/06/29 00:33:22;;;;;;;3.80;3.13;;;;;;;16.09;100.00;100560.69;5034716;28;20195;-69
2023/06/29 00:35:51;;;;;;;5.10;3.07;;;;;;;16.17;100.00;100561.50;5042715;28;20217;-70
2023/06/29 00:38:17;;;;;;;3.90;3.20;;;;;;;16.16;100.00;100565.06;5033819;28;20200;-70
2023/06/29 00:40:43;;;;;;;4.63;3.30;;;;;;;16.06;100.00;100558.91;5032580;28;20203;-70
2023/06/29 00:43:10;;;;;;;4.67;3.50;;;;;;;16.14;100.00;100562.41;5043485;28;20685;-69
2023/06/29 00:45:36;;;;;;;4.63;3.47;;;;;;;16.21;100.00;100569.50;5045950;28;20302;-70
2023/06/29 00:48:03;;;;;;;5.60;3.70;;;;;;;16.11;100.00;100569.56;5031940;28;20204;-70
2023/06/29 00:50:30;;;;;;;4.97;3.43;;;;;;;15.98;100.00;100560.72;5036613;28;20264;-70
2023/06/29 00:52:56;;;;;;;6.07;3.73;;;;;;;16.08;100.00;100559.78;5039887;28;20226;-70
2023/06/29 00:55:23;;;;;;;5.00;3.33;;;;;;;16.09;100.00;100553.53;5037943;28;20219;-70
2023/06/29 00:57:49;;;;;;;5.27;3.53;;;;;;;15.98;100.00;100558.94;5039555;28;20312;-69
2023/06/29 01:00:16;;;;;;;5.10;3.47;;;;;;;15.80;100.00;100563.50;5033046;28;20196;-68
2023/06/29 01:02:43;;;;;;;6.27;3.80;;;;;;;15.64;100.00;100568.03;5040830;28;20323;-70
2023/06/29 01:05:11;;;;;;;9.23;4.03;;;;;;;15.59;100.00;100567.13;5048861;28;20207;-70
2023/06/29 01:07:49;;;;;;;7.47;4.27;;;;;;;15.58;100.00;100562.69;5037835;28;20550;-70
2023/06/29 01:10:22;;;;;;;6.57;4.07;;;;;;;15.58;100.00;100560.03;5032186;28;20569;-69
2023/06/29 01:12:51;;;;;;;6.40;4.03;;;;;;;15.72;100.00;100552.88;5041081;28;20209;-71
2023/06/29 01:15:19;;;;;;;5.87;4.00;;;;;;;15.79;100.00;100549.25;5041340;28;20205;-70
2023/06/29 01:17:47;;;;;;;7.40;4.00;;;;;;;15.83;100.00;100553.69;5037662;28;20199;-70
2023/06/29 01:20:16;;;;;;;7.07;3.80;;;;;;;15.75;100.00;100552.84;5038539;28;20245;-70
2023/06/29 01:22:53;;;;;;;6.87;3.77;;;;;;;15.69;100.00;100550.22;5044702;28;20250;-70
2023/06/29 01:25:20;;;;;;;5.93;4.13;;;;;;;15.68;100.00;100548.44;5041122;28;20242;-70
2023/06/29 01:27:47;;;;;;;5.57;3.50;;;;;;;15.71;100.00;100548.41;5037224;28;20207;-70
2023/06/29 01:30:13;;;;;;;5.43;3.73;;;;;;;15.70;100.00;100548.44;5036648;28;20202;-69
2023/06/29 01:32:39;;;;;;;5.07;3.80;;;;;;;15.76;100.00;100545.72;5040219;28;20281;-69
2023/06/29 01:35:09;;;;;;;5.07;3.50;;;;;;;15.77;100.00;100547.50;5039210;28;20196;-70
2023/06/29 01:37:47;;;;;;;6.07;4.00;;;;;;;15.72;100.00;100538.63;5037998;28;20217;-70
2023/06/29 01:40:20;;;;;;;5.17;4.00;;;;;;;15.55;100.00;100544.00;5031720;28;20202;-71
2023/06/29 01:42:48;;;;;;;8.20;4.17;;;;;;;15.48;100.00;100537.78;5043227;28;20722;-70
2023/06/29 01:45:19;;;;;;;9.20;4.67;;;;;;;15.50;100.00;100545.78;5038210;28;20571;-70
2023/06/29 01:47:45;;;;;;;4.83;3.57;;;;;;;15.47;100.00;100545.81;5038865;28;20286;-69
2023/06/29 01:50:12;;;;;;;5.50;3.90;;;;;;;15.43;100.00;100538.72;5041852;28;20192;-69
2023/06/29 01:52:39;;;;;;;7.63;3.90;;;;;;;15.40;100.00;100538.72;5042284;28;20218;-69
2023/06/29 01:55:09;;;;;;;6.80;4.00;;;;;;;15.48;100.00;100531.56;5041646;28;20287;-70
2023/06/29 01:57:35;;;;;;;4.90;3.77;;;;;;;15.53;100.00;100541.34;5040442;28;20222;-69
2023/06/29 02:00:03;;;;;;;5.20;3.80;;;;;;;15.49;100.00;100541.34;5045144;28;20206;-69
2023/06/29 02:02:30;;;;;;;4.87;3.87;;;;;;;15.48;100.00;100539.56;5043163;28;20216;-70
2023/06/29 02:04:57;;;;;;;5.43;3.60;;;;;;;15.34;100.00;100540.53;5043651;28;20207;-69
2023/06/29 02:07:24;;;;;;;5.63;3.97;;;;;;;15.25;100.00;100534.34;5036369;28;20588;-70
2023/06/29 02:09:51;;;;;;;8.60;4.50;;;;;;;15.17;100.00;100536.13;5042123;28;20287;-70
2023/06/29 02:12:17;;;;;;;5.83;3.70;;;;;;;15.05;100.00;100539.72;5039767;28;20191;-69
2023/06/29 02:14:44;;;;;;;6.83;3.80;;;;;;;14.96;100.00;100537.97;5039419;28;20804;-69
2023/06/29 02:17:10;;;;;;;5.93;4.10;;;;;;;14.85;100.00;100533.56;5039716;23;20231;-67
2023/06/29 02:19:37;;;;;;;6.10;3.53;;;;;;;14.79;100.00;100536.19;5008293;28;20690;-67
2023/06/29 02:22:03;;;;;;;7.23;4.17;;;;;;;14.85;100.00;100536.22;5007351;28;20220;-68
2023/06/29 02:24:30;;;;;;;6.33;3.83;;;;;;;14.89;100.00;100540.66;5011644;28;20235;-67
2023/06/29 02:26:57;;;;;;;7.40;4.50;;;;;;;14.95;100.00;100537.97;5004921;28;20235;-67
2023/06/29 02:29:23;;;;;;;6.33;3.93;;;;;;;14.86;100.00;100535.34;5015787;28;20200;-67
2023/06/29 02:31:49;;;;;;;5.30;3.93;;;;;;;14.79;100.00;100525.53;4996107;28;20726;-67
2023/06/29 02:34:16;;;;;;;5.67;3.87;;;;;;;14.75;100.00;100522.00;4999262;28;20739;-68
2023/06/29 02:36:42;;;;;;;6.13;4.20;;;;;;;14.76;100.00;100521.09;4999012;28;20219;-66
2023/06/29 02:39:09;;;;;;;7.17;4.07;;;;;;;14.77;100.00;100522.00;5001853;28;20201;-67
2023/06/29 02:41:35;;;;;;;7.80;4.20;;;;;;;14.76;100.00;100520.22;5015576;28;20224;-68
2023/06/29 02:44:02;;;;;;;6.50;4.23;;;;;;;14.71;100.00;100518.44;4992195;28;20283;-67
2023/06/29 02:46:29;;;;;;;6.03;4.07;;;;;;;14.72;100.00;100511.34;5001934;28;20221;-67
2023/06/29 02:48:55;;;;;;;4.97;3.67;;;;;;;14.89;100.00;100514.00;4994549;28;20205;-66
2023/06/29 02:51:22;;;;;;;5.03;3.30;;;;;;;14.92;100.00;100506.88;4997780;28;20201;-67
2023/06/29 02:53:48;;;;;;;5.83;3.67;;;;;;;15.05;100.00;100513.03;4998333;28;20210;-67
2023/06/29 02:56:14;;;;;;;5.93;3.47;;;;;;;15.13;100.00;100508.56;5002531;28;20592;-66
2023/06/29 02:58:41;;;;;;;6.63;3.43;;;;;;;15.15;100.00;100511.22;4998158;28;20192;-67
2023/06/29 03:01:08;;;;;;;4.43;3.23;;;;;;;15.07;100.00;100507.72;4993460;28;20197;-67
2023/06/29 03:03:34;;;;;;;5.83;3.40;;;;;;;15.01;100.00;100503.28;4999271;28;20227;-68
2023/06/29 03:06:01;;;;;;;5.37;3.20;;;;;;;15.05;100.00;100511.28;5000186;28;20703;-68
2023/06/29 03:08:27;;;;;;;4.67;3.50;;;;;;;15.00;100.00;100504.19;4994462;28;20287;-67
2023/06/29 03:10:54;;;;;;;4.70;3.40;;;;;;;14.83;100.00;100506.00;4997707;28;20291;-68
2023/06/29 03:13:20;;;;;;;4.70;3.10;;;;;;;14.68;100.00;100507.78;4997452;28;20193;-68
2023/06/29 03:15:46;;;;;;;8.97;3.60;;;;;;;14.56;100.00;100506.94;4996771;28;20207;-68
2023/06/29 03:18:13;;;;;;;5.33;3.70;;;;;;;14.57;100.00;100504.25;4997366;28;20201;-66
2023/06/29 03:20:39;;;;;;;4.57;3.37;;;;;;;14.57;100.00;100514.91;5001780;28;20458;-68
2023/06/29 03:23:06;;;;;;;3.90;3.03;;;;;;;14.46;100.00;100510.50;4996699;28;20230;-68
2023/06/29 03:25:32;;;;;;;5.10;3.40;;;;;;;14.46;100.00;100503.38;4998200;28;20212;-68
2023/06/29 03:28:01;;;;;;;4.93;3.27;;;;;;;14.49;100.00;100502.50;4998678;28;20193;-68
2023/06/29 03:30:27;;;;;;;3.97;3.20;;;;;;;14.49;100.00;100500.72;5005407;28;20287;-68
2023/06/29 03:32:53;;;;;;;4.67;3.20;;;;;;;14.62;100.00;100501.59;4990519;28;20665;-67
2023/06/29 03:35:20;;;;;;;6.40;3.70;;;;;;;14.93;100.00;100505.09;4995682;28;20200;-67
2023/06/29 03:37:46;;;;;;;4.33;3.13;;;;;;;15.07;100.00;100503.25;4996487;28;20227;-68
2023/06/29 03:40:13;;;;;;;6.27;3.50;;;;;;;15.10;100.00;100494.34;5000866;28;20625;-67
2023/06/29 03:42:39;;;;;;;4.50;2.90;;;;;;;15.09;100.00;100490.81;4994171;28;20221;-66
2023/06/29 03:45:06;;;;;;;5.33;3.53;;;;;;;15.11;100.00;100497.03;4999694;28;20284;-68
2023/06/29 03:47:33;;;;;;;6.87;3.30;;;;;;;15.24;100.00;100498.78;4992162;28;20247;-67
2023/06/29 03:49:59;;;;;;;5.00;3.47;;;;;;;15.32;100.00;100498.72;4999773;28;20232;-66
2023/06/29 03:52:26;;;;;;;4.67;3.20;;;;;;;15.44;100.00;100496.00;4998463;28;20251;-67
2023/06/29 03:54:52;;;;;;;5.20;3.03;;;;;;;15.56;100.00;100495.03;4995101;28;20700;-66
2023/06/29 03:57:18;;;;;;;5.17;3.30;;;;;;;15.67;100.00;100498.59;4994750;28;20247;-66
2023/06/29 03:59:45;;;;;;;4.77;3.23;;;;;;;15.79;100.00;100493.19;4995903;28;20196;-68
2023/06/29 04:02:11;;;;;;;6.87;3.37;;;;;;;15.86;100.00;100489.56;5012610;28;20212;-66
2023/06/29 04:04:38;;;;;;;6.17;3.30;;;;;;;15.89;100.00;100492.22;4998570;28;20578;-67
2023/06/29 04:07:04;;;;;;;5.47;3.00;;;;;;;15.91;100.00;100484.19;5002482;28;20216;-67
2023/06/29 04:09:31;;;;;;;4.97;3.30;;;;;;;15.94;100.00;100478.81;4997249;28;20200;-68
2023/06/29 04:11:58;;;;;;;7.23;3.80;;;;;;;15.94;100.00;100478.81;4996398;28;20284;-68
2023/06/29 04:14:24;;;;;;;5.93;3.20;;;;;;;16.06;100.00;100478.75;4995776;28;20204;-67
2023/06/29 04:16:51;;;;;;;4.40;3.63;;;;;;;16.15;100.00;100493.81;5005179;28;20282;-67
2023/06/29 04:19:17;;;;;;;4.87;3.00;;;;;;;16.10;100.00;100488.53;4997765;28;20204;-66
2023/06/29 04:21:44;;;;;;;4.77;3.03;;;;;;;16.10;100.00;100491.19;4993208;28;20279;-67
2023/06/29 04:24:10;;;;;;;5.00;3.37;;;;;;;16.15;100.00;100496.50;4995551;28;20388;-66
2023/06/29 04:26:38;;;;;;;3.87;3.40;;;;;;;16.23;100.00;100497.31;5005280;28;20521;-66
2023/06/29 04:29:06;;;;;;;5.47;3.53;;;;;;;16.22;100.00;100488.41;4993922;28;20512;-66
2023/06/29 04:31:33;;;;;;;5.67;3.60;;;;;;;16.30;100.00;100483.00;4990877;28;20208;-66
2023/06/29 04:34:02;;;;;;;5.03;3.30;;;;;;;16.39;100.00;100480.25;4988476;28;20208;-66
2023/06/29 04:36:29;;;;;;;6.93;3.60;;;;;;;16.55;100.00;100479.22;4995162;28;20215;-66
2023/06/29 04:38:56;;;;;;;9.77;3.53;;;;;;;16.61;100.00;100472.94;4993500;28;20616;-66
2023/06/29 04:41:31;;;;;;;4.63;3.40;;;;;;;16.74;100.00;100477.28;5004577;28;20204;-67
2023/06/29 04:43:59;;;;;;;5.03;3.03;;;;;;;16.76;100.00;100478.13;4994059;28;20242;-67
2023/06/29 04:46:28;;;;;;;5.50;3.27;;;;;;;16.85;100.00;100471.84;5005083;28;20572;-67
2023/06/29 04:48:54;;;;;;;4.30;3.23;;;;;;;16.99;100.00;100471.66;4988428;28;20197;-66
2023/06/29 04:51:21;;;;;;;4.37;3.30;;;;;;;17.15;100.00;100471.44;4993508;28;20284;-67
2023/06/29 04:53:47;;;;;;;5.07;3.47;;;;;;;17.38;100.00;100464.94;5001298;28;20282;-66
2023/06/29 04:56:14;;;;;;;5.33;3.47;;;;;;;17.66;100.00;100466.34;5000103;28;20391;-67
2023/06/29 04:58:40;;;;;;;6.27;4.13;;;;;;;18.03;100.00;100463.16;4994372;28;20204;-66
2023/06/29 05:01:07;;;;;;;5.10;3.60;;;;;;;18.19;100.00;100463.78;5002106;28;20605;-66
2023/06/29 05:03:33;;;;;;;4.20;3.40;;;;;;;18.52;99.83;100463.19;5005192;28;20223;-66
2023/06/29 05:06:00;;;;;;;6.20;3.80;;;;;;;18.89;97.42;100466.13;4997267;28;20227;-67
2023/06/29 05:08:26;;;;;;;4.17;3.33;;;;;;;19.18;95.92;100470.00;4997927;28;20208;-67
2023/06/29 05:10:53;;;;;;;7.20;3.83;;;;;;;19.41;93.33;100468.63;5002479;28;20204;-67
2023/06/29 05:13:19;;;;;;;8.00;3.70;;;;;;;19.62;93.17;100461.06;5004376;28;20193;-67
2023/06/29 05:15:47;;;;;;;5.23;3.97;;;;;;;19.94;91.44;100454.91;5006177;28;20283;-67
2023/06/29 05:18:14;;;;;;;5.70;3.60;;;;;;;20.10;89.78;100459.00;4990449;28;20209;-67
2023/06/29 05:20:41;;;;;;;3.80;3.00;;;;;;;20.28;88.65;100460.34;5006241;28;20201;-66
2023/06/29 05:23:09;;;;;;;5.38;3.00;;;;;;;20.46;86.91;100456.34;5001303;28;20687;-67
2023/06/29 05:25:36;;;;;;;4.45;2.80;;;;;;;20.88;84.59;100454.31;5000627;28;20200;-67
2023/06/29 05:28:02;;;;;;;4.10;3.10;;;;;;;21.26;81.48;100447.88;4994359;28;20205;-67
2023/06/29 05:30:29;;;;;;;6.65;2.92;;;;;;;21.58;79.08;100457.66;4991081;28;20729;-67
2023/06/29 05:32:55;;;;;;;6.75;2.92;;;;;;;21.93;77.41;100450.28;4987889;28;20225;-67
2023/06/29 05:35:22;;;;;;;5.95;2.83;;;;;;;22.37;75.61;100448.84;4987585;28;20198;-66
2023/06/29 05:37:48;;;;;;;4.30;2.83;;;;;;;22.35;74.10;100440.81;4995462;28;20224;-67
2023/06/29 05:40:15;;;;;;;4.93;3.08;;;;;;;22.34;75.13;100440.84;4986753;28;20197;-66
2023/06/29 05:42:41;;;;;;;5.07;3.03;;;;;;;22.42;75.34;100442.38;4991236;28;20220;-65
2023/06/29 05:45:08;;;;;;;6.28;3.33;;;;;;;22.49;73.38;100435.84;4987425;28;20204;-65
2023/06/29 05:47:34;;;;;;;6.45;3.08;;;;;;;22.64;72.30;100442.50;4992270;28;20227;-65
2023/06/29 05:50:01;;;;;;;4.45;2.97;;;;;;;22.88;71.58;100448.00;4990866;28;20205;-65
2023/06/29 05:52:27;;;;;;;4.57;3.17;;;;;;;22.70;72.80;100447.69;4991295;28;20189;-66
2023/06/29 05:54:54;;;;;;;5.60;2.60;;;;;;;22.79;73.80;100443.75;4992045;28;20211;-65
2023/06/29 05:57:20;;;;;;;7.07;3.03;;;;;;;22.79;73.34;100439.25;4988556;28;20213;-65
2023/06/29 05:59:46;;;;;;;6.25;3.08;;;;;;;22.59;72.78;100438.19;4991451;28;20208;-66
2023/06/29 06:02:13;;;;;;;4.07;2.92;;;;;;;22.69;73.33;100431.53;4984290;28;20205;-66
2023/06/29 06:04:39;;;;;;;4.30;2.70;;;;;;;22.69;73.31;100439.63;4980202;28;20219;-66
2023/06/29 06:07:06;;;;;;;6.68;3.80;;;;;;;22.29;76.70;100438.31;5002773;28;20224;-66
2023/06/29 06:09:32;;;;;;;7.53;3.70;;;;;;;22.39;77.32;100441.56;5001000;28;20308;-66
2023/06/29 06:11:58;;;;;;;5.75;3.85;;;;;;;22.36;78.05;100444.38;5007373;28;20287;-66
2023/06/29 06:14:25;;;;;;;6.45;3.90;;;;;;;22.65;77.43;100443.38;4992097;28;20204;-66
2023/06/29 06:16:52;;;;;;;5.45;3.78;;;;;;;22.79;75.69;100446.47;5002600;28;20228;-66
2023/06/29 06:19:19;;;;;;;7.43;4.03;;;;;;;22.79;75.35;100443.75;4993475;28;20201;-66
2023/06/29 06:21:45;;;;;;;6.40;3.33;;;;;;;22.99;74.17;100449.38;5007458;28;20366;-67
2023/06/29 06:24:11;;;;;;;4.93;3.33;;;;;;;23.12;73.86;100445.28;4998822;28;20223;-66
2023/06/29 06:26:38;;;;;;;9.90;3.63;;;;;;;23.19;72.59;100445.91;5003910;28;20262;-66
2023/06/29 06:29:04;;;;;;;9.45;3.65;;;;;;;23.24;72.41;100443.06;5010790;28;20291;-66
2023/06/29 06:31:31;;;;;;;7.88;3.72;;;;;;;23.31;71.28;100439.19;4991927;28;20196;-66
2023/06/29 06:34:00;;;;;;;8.45;4.15;;;;;;;23.42;71.00;100439.66;4999104;28;20235;-66
2023/06/29 06:36:30;;;;;;;7.78;3.67;;;;;;;23.59;70.52;100436.31;5004400;28;20621;-66
2023/06/29 06:38:56;;;;;;;11.45;4.50;;;;;;;23.77;69.78;100440.13;5001545;28;20296;-66
2023/06/29 06:41:22;;;;;;;9.40;4.20;;;;;;;23.85;68.96;100425.34;5009615;28;20683;-66
2023/06/29 06:43:49;;;;;;;10.65;4.50;;;;;;;23.87;69.28;100428.88;5010784;28;20402;-65
2023/06/29 06:46:15;;;;;;;9.55;4.57;;;;;;;23.70;69.79;100434.97;5010375;28;20695;-65
2023/06/29 06:48:41;;;;;;;9.43;4.35;;;;;;;23.77;69.23;100435.59;4978650;28;20291;-66
2023/06/29 06:51:08;;;;;;;10.18;4.38;;;;;;;23.84;69.90;100433.53;4998536;28;20582;-66
2023/06/29 06:53:34;;;;;;;5.35;3.55;;;;;;;24.05;69.78;100425.41;4999014;28;20492;-66
2023/06/29 06:56:01;;;;;;;10.23;3.90;;;;;;;24.24;67.54;100425.50;4993647;28;20308;-66
2023/06/29 06:58:27;;;;;;;9.60;4.15;;;;;;;24.47;67.36;100424.59;4980896;28;20253;-65
2023/06/29 07:00:54;;;;;;;14.30;4.18;;;;;;;24.78;65.67;100423.22;4990228;28;20203;-66
2023/06/29 07:03:20;;;;;;;8.55;3.63;;;;;;;25.08;62.98;100432.72;4989340;28;20219;-66
2023/06/29 07:05:47;;;;;;;7.82;3.50;;;;;;;25.07;61.35;100430.94;4987039;28;20286;-66
2023/06/29 07:08:14;;;;;;;8.55;3.53;;;;;;;25.10;61.43;100425.38;4988299;28;20210;-66
2023/06/29 07:10:40;;;;;;;10.45;3.67;;;;;;;25.53;60.46;100424.25;4990263;28;20197;-66
2023/06/29 07:13:07;;;;;;;5.93;3.10;;;;;;;27.25;55.44;100427.31;4985033;28;20188;-66
2023/06/29 07:15:33;;;;;;;7.20;3.10;;;;;;;29.28;48.62;100417.09;4985093;28;20200;-66
2023/06/29 07:17:59;;;;;;;3.83;2.20;;;;;;;31.46;40.10;100423.22;4988953;28;20784;-66
2023/06/29 07:20:26;;;;;;;5.78;2.70;;;;;;;32.45;37.03;100420.44;4971444;28;21006;-66
2023/06/29 07:22:55;;;;;;;8.88;3.08;;;;;;;33.12;35.69;100426.13;4982939;28;20221;-67
2023/06/29 07:25:25;;;;;;;7.45;3.00;;;;;;;33.88;35.33;100422.69;4983127;28;20208;-67
2023/06/29 07:27:51;;;;;;;5.75;3.20;;;;;;;34.15;34.09;100422.25;4984624;28;20300;-66
2023/06/29 07:30:17;;;;;;;4.50;2.80;;;;;;;34.72;32.49;100421.03;4983614;28;20240;-66
2023/06/29 07:32:44;;;;;;;6.47;3.17;;;;;;;34.98;31.06;100418.81;4982812;28;20244;-67
2023/06/29 07:35:11;;;;;;;6.25;2.70;;;;;;;35.11;31.83;100417.56;4984362;28;20197;-67
2023/06/29 07:37:38;;;;;;;6.50;2.90;;;;;;;35.09;31.75;100416.84;4988038;28;20236;-66
2023/06/29 07:40:05;;;;;;;8.20;2.92;;;;;;;34.31;32.87;100405.31;4989036;28;20679;-67
2023/06/29 07:42:32;;;;;;;5.65;2.60;;;;;;;34.92;31.10;100414.72;4984873;28;20229;-66
2023/06/29 07:45:06;;;;;;;4.40;2.50;;;;;;;35.40;30.24;100405.88;4988708;28;20288;-67
2023/06/29 07:47:32;;;;;;;7.40;2.60;;;;;;;35.33;30.06;100412.94;4996804;28;20385;-67
2023/06/29 07:49:59;;;;;;;8.82;2.10;;;;;;;34.56;31.21;100419.63;4988102;28;20193;-67
2023/06/29 07:52:26;;;;;;;5.78;2.60;;;;;;;34.44;31.63;100417.06;4982825;28;20259;-67
2023/06/29 07:54:53;;;;;;;5.30;2.55;;;;;;;34.32;30.53;100409.81;4985234;28;20225;-67
2023/06/29 07:57:19;;;;;;;4.63;2.40;;;;;;;34.63;30.27;100417.22;4980480;28;20307;-66
2023/06/29 07:59:49;;;;;;;3.92;2.58;;;;;;;34.54;30.32;100407.88;4984501;28;20275;-67
2023/06/29 08:02:15;;;;;;;6.78;2.70;;;;;;;34.60;30.36;100417.47;4985399;28;20614;-66
2023/06/29 08:04:42;;;;;;;3.63;2.50;;;;;;;33.96;31.59;100409.16;4995048;28;20715;-66
2023/06/29 08:07:12;;;;;;;8.57;2.30;;;;;;;33.05;32.64;100413.91;4986491;28;20727;-66
2023/06/29 08:09:39;;;;;;;5.03;2.45;;;;;;;33.11;33.17;100406.03;4983014;28;20192;-66
2023/06/29 08:12:06;;;;;;;6.35;3.30;;;;;;;32.37;33.53;100413.66;4997305;28;20554;-66
2023/06/29 08:14:34;;;;;;;4.10;2.47;;;;;;;31.51;34.81;100415.56;4986094;28;20767;-66
2023/06/29 08:17:10;;;;;;;4.50;2.75;;;;;;;32.35;33.58;100406.53;5011093;23;20215;-94
2023/06/29 08:19:36;;;;;;;4.80;2.47;;;;;;;31.57;34.33;100395.94;5026537;28;20227;-94
2023/06/29 08:22:03;;;;;;;5.03;2.20;;;;;;;31.14;34.33;100401.75;5023585;28;20200;-94
2023/06/29 08:24:29;;;;;;;5.15;2.85;;;;;;;31.43;34.30;100390.59;5030219;28;20215;-93
2023/06/29 08:26:58;;;;;;;3.03;2.20;;;;;;;31.10;35.33;100391.16;5031727;28;20222;-94
2023/06/29 08:29:25;;;;;;;5.57;2.15;;;;;;;31.12;35.53;100386.44;5032040;28;20242;-94
2023/06/29 08:31:52;;;;;;;6.95;2.63;;;;;;;31.52;34.33;100370.75;5047089;28;20221;-95
2023/06/29 08:34:19;;;;;;;4.38;2.40;;;;;;;31.24;35.28;100388.34;5052368;28;20204;-95
2023/06/29 08:36:45;;;;;;;4.82;2.60;;;;;;;30.29;36.72;100385.88;5038539;28;20199;-96
2023/06/29 08:39:12;;;;;;;3.72;2.40;;;;;;;29.71;37.94;100383.44;5035680;28;20247;-95
2023/06/29 08:41:38;;;;;;;3.58;2.65;;;;;;;29.47;38.98;100380.44;5034800;28;20651;-95
2023/06/29 08:44:06;;;;;;;5.97;2.40;;;;;;;29.48;38.98;100377.63;5037493;28;20215;-96
2023/06/29 08:46:36;;;;;;;5.20;2.30;;;;;;;29.71;39.27;100373.41;5043554;28;20435;-95
2023/06/29 08:49:06;;;;;;;5.00;2.38;;;;;;;29.46;38.94;100373.25;5040640;28;20268;-95
2023/06/29 08:51:34;;;;;;;6.55;3.28;;;;;;;29.71;39.49;100364.34;5043244;28;20218;-96
2023/06/29 08:54:02;;;;;;;5.95;2.40;;;;;;;29.83;38.72;100363.50;5038214;28;20204;-96
2023/06/29 08:56:30;;;;;;;4.80;2.38;;;;;;;29.95;38.59;100369.00;5038450;28;20230;-95
2023/06/29 08:58:57;;;;;;;4.43;2.65;;;;;;;29.55;38.56;100373.50;5045085;28;20234;-95
2023/06/29 09:01:24;;;;;;;5.63;2.40;;;;;;;29.65;39.55;100356.56;5043681;28;20203;-96
2023/06/29 09:03:52;;;;;;;5.22;2.45;;;;;;;29.89;39.05;100376.75;5040062;28;20250;-95
2023/06/29 09:06:19;;;;;;;4.05;2.50;;;;;;;29.74;39.23;100377.78;5059218;22;20220;-65
2023/06/29 09:08:46;;;;;;;4.50;2.33;;;;;;;29.98;38.04;100367.03;5023283;28;20231;-67
2023/06/29 09:11:12;;;;;;;3.15;2.63;;;;;;;30.02;38.02;100368.59;5016580;28;20200;-67
2023/06/29 09:13:39;;;;;;;4.25;2.28;;;;;;;30.63;37.38;100368.06;5024555;28;20203;-66
2023/06/29 09:16:05;;;;;;;4.05;1.95;;;;;;;30.70;37.31;100369.38;5026875;28;20192;-66
2023/06/29 09:18:32;;;;;;;3.33;2.30;;;;;;;31.44;36.13;100365.84;5025403;28;20195;-68
2023/06/29 09:20:59;;;;;;;5.45;2.03;;;;;;;31.80;35.01;100366.88;5030325;28;20195;-65
2023/06/29 09:23:26;;;;;;;5.40;2.08;;;;;;;31.38;35.03;100370.91;5028497;28;20224;-67
2023/06/29 09:25:54;;;;;;;7.25;2.30;;;;;;;32.12;34.34;100366.31;5023800;28;20458;-68
2023/06/29 09:28:21;;;;;;;6.55;2.30;;;;;;;32.00;34.90;100359.88;5027762;28;20219;-67
2023/06/29 09:30:49;;;;;;;5.90;2.38;;;;;;;32.49;34.65;100358.88;5029858;28;20214;-66
2023/06/29 09:33:16;;;;;;;4.03;2.20;;;;;;;32.71;33.24;100357.06;5025640;28;20689;-69
2023/06/29 09:35:47;;;;;;;4.43;2.05;;;;;;;33.00;32.18;100354.75;5027508;28;20205;-71
2023/06/29 09:38:15;;;;;;;4.45;2.13;;;;;;;32.69;33.03;100355.44;5023373;28;20219;-70
2023/06/29 09:40:47;;;;;;;6.93;2.65;;;;;;;32.45;33.30;100355.50;5023266;28;20230;-69
2023/06/29 09:43:25;;;;;;;2.97;2.30;;;;;;;32.70;33.23;100352.56;5021443;28;20291;-70
2023/06/29 09:45:59;;;;;;;6.30;2.40;;;;;;;32.90;32.59;100350.16;5028157;28;20264;-71
2023/06/29 09:48:26;;;;;;;4.38;2.75;;;;;;;32.44;33.87;100350.16;5021305;28;20350;-72
2023/06/29 09:50:55;;;;;;;3.17;2.28;;;;;;;32.46;33.56;100350.91;5023755;28;20203;-69
2023/06/29 09:53:32;;;;;;;4.40;2.42;;;;;;;32.40;34.39;100349.47;5026496;28;20257;-66
2023/06/29 09:56:00;;;;;;;4.53;2.25;;;;;;;32.77;33.50;100350.19;5024239;28;20205;-68
2023/06/29 09:58:30;;;;;;;4.25;2.50;;;;;;;33.11;33.82;100351.16;5026353;28;20227;-68
2023/06/29 10:00:58;;;;;;;5.57;2.42;;;;;;;33.39;33.06;100343.44;5027177;28;20238;-68
2023/06/29 10:03:27;;;;;;;5.00;2.30;;;;;;;33.64;32.40;100344.03;5022985;28;20230;-67
2023/06/29 10:06:19;;;;;;;2.97;2.35;;;;;;;33.60;32.11;100336.16;5021745;28;20196;-67
2023/06/29 10:08:53;;;;;;;15.77;3.58;;;;;;;33.32;32.53;100345.81;5021252;28;20674;-68
2023/06/29 10:11:22;;;;;;;4.22;2.80;;;;;;;32.88;32.90;100339.28;5023545;28;20287;-68
2023/06/29 10:13:52;;;;;;;6.80;3.00;;;;;;;32.63;33.74;100344.94;5026993;28;20187;-68
2023/06/29 10:16:22;;;;;;;3.92;2.13;;;;;;;32.38;34.20;100338.63;5023836;28;20206;-68
2023/06/29 10:18:54;;;;;;;4.93;2.47;;;;;;;32.20;34.69;100342.78;5023618;28;20225;-70
2023/06/29 10:21:21;;;;;;;4.60;2.67;;;;;;;31.62;36.31;100332.59;5028608;28;20249;-69
2023/06/29 10:23:49;;;;;;;3.67;2.40;;;;;;;31.62;36.34;100328.03;5027108;28;20245;-67
2023/06/29 10:26:17;;;;;;;4.85;3.92;;;;;;;31.00;37.23;100335.34;5025657;28;20202;-70
2023/06/29 10:28:44;;;;;;;3.72;2.40;;;;;;;31.17;37.32;100333.16;5025229;28;20196;-67
2023/06/29 10:31:10;;;;;;;4.18;2.55;;;;;;;31.16;37.49;100331.41;5028254;28;20273;-70
2023/06/29 10:33:48;;;;;;;3.28;2.90;;;;;;;31.18;38.87;100334.03;5028412;28;20192;-70
2023/06/29 10:36:19;;;;;;;8.00;2.72;;;;;;;30.87;39.00;100324.44;5026391;28;20617;-70
2023/06/29 10:38:45;;;;;;;4.22;2.72;;;;;;;30.82;39.50;100330.22;5024100;28;20214;-67
2023/06/29 10:41:30;;;;;;;3.58;2.50;;;;;;;30.43;38.76;100338.50;5024165;28;20199;-68
2023/06/29 10:43:58;;;;;;;5.50;2.50;;;;;;;29.93;39.46;100327.28;5026731;28;20524;-70
2023/06/29 10:46:43;;;;;;;5.10;2.90;;;;;;;29.62;40.09;100317.56;5028338;28;20711;-71
2023/06/29 10:49:23;;;;;;;3.90;2.40;;;;;;;29.21;39.00;100316.63;5029345;28;20195;-70
2023/06/29 10:51:52;;;;;;;6.55;2.40;;;;;;;29.38;38.66;100315.53;5029450;28;20715;-70
2023/06/29 10:54:23;;;;;;;3.53;2.65;;;;;;;29.13;38.77;100314.38;5022311;28;20271;-71
2023/06/29 10:57:29;;;;;;;3.80;2.75;;;;;;;29.06;37.99;100313.03;5018615;28;20219;-68
2023/06/29 10:59:56;;;;;;;4.22;2.65;;;;;;;28.85;37.99;100314.44;5017752;28;20199;-69
2023/06/29 11:02:23;;;;;;;4.93;2.97;;;;;;;28.53;39.41;100309.09;5021665;28;20660;-69
2023/06/29 11:04:50;;;;;;;5.03;3.10;;;;;;;28.51;39.35;100311.06;5024514;28;20219;-69
2023/06/29 11:07:17;;;;;;;7.32;3.53;;;;;;;28.61;39.63;100303.16;5026715;28;20426;-69
2023/06/29 11:09:43;;;;;;;37.75;6.68;;;;;;;28.68;40.20;100312.72;5022254;28;20192;-69
2023/06/29 11:12:10;;;;;;;9.68;4.10;;;;;;;28.71;40.50;100317.97;5021858;28;20195;-69
2023/06/29 11:14:42;;;;;;;5.72;3.90;;;;;;;28.51;40.65;100312.91;5028894;28;20192;-69
2023/06/29 11:17:08;;;;;;;17.13;4.60;;;;;;;28.42;41.57;100316.16;5025693;28;20705;-68
2023/06/29 11:19:35;;;;;;;47.85;5.70;;;;;;;28.10;42.83;100310.81;5026749;28;20253;-68
2023/06/29 11:22:01;;;;;;;5.05;2.92;;;;;;;27.98;41.26;100315.13;5018633;28;20739;-68
2023/06/29 11:24:27;;;;;;;6.80;3.33;;;;;;;27.74;41.53;100309.31;5023796;28;20225;-69